createdAt,value
2018-05-15T00:01:25.206Z,15.63
2018-05-15T00:03:53.885Z,15.64
2018-05-15T00:06:22.264Z,15.61
2018-05-15T00:08:50.709Z,15.58
2018-05-15T00:11:19.156Z,15.35
2018-05-15T00:13:47.565Z,15.41
2018-05-15T00:16:15.971Z,15.38
2018-05-15T00:18:44.779Z,15.37
2018-05-15T00:21:13.195Z,15.46
2018-05-15T00:23:41.613Z,15.12
2018-05-15T00:26:10.039Z,15.30
2018-05-15T00:28:38.447Z,15.04
2018-05-15T00:31:06.843Z,15.27
2018-05-15T00:33:35.671Z,15.31
2018-05-15T00:36:04.107Z,15.41
2018-05-15T00:38:32.516Z,15.06
2018-05-15T00:41:01.233Z,15.03
2018-05-15T00:43:29.699Z,15.15
2018-05-15T00:45:58.122Z,15.35
2018-05-15T00:48:26.980Z,15.33
2018-05-15T00:50:55.386Z,15.18
2018-05-15T00:53:23.795Z,15.27
2018-05-15T00:55:52.236Z,15.29
2018-05-15T00:58:20.649Z,15.16
2018-05-15T01:00:49.072Z,15.02
2018-05-15T01:03:17.864Z,15.33
2018-05-15T01:05:46.269Z,15.65
2018-05-15T01:08:14.692Z,15.72
2018-05-15T01:10:43.128Z,15.70
2018-05-15T01:13:11.517Z,15.60
2018-05-15T01:15:39.923Z,15.27
2018-05-15T01:18:08.510Z,15.48
2018-05-15T01:20:36.959Z,15.41
2018-05-15T01:23:05.358Z,15.11
2018-05-15T01:25:33.956Z,15.11
2018-05-15T01:28:02.378Z,14.94
2018-05-15T01:30:30.960Z,14.72
2018-05-15T01:32:59.752Z,14.91
2018-05-15T01:35:28.147Z,14.86
2018-05-15T01:37:56.568Z,14.86
2018-05-15T01:40:25.095Z,15.07
2018-05-15T01:42:53.539Z,14.83
2018-05-15T01:45:21.961Z,14.94
2018-05-15T01:47:50.700Z,15.06
2018-05-15T01:50:19.106Z,15.16
2018-05-15T01:52:47.563Z,15.24
2018-05-15T01:55:16.403Z,14.98
2018-05-15T01:57:44.803Z,15.00
2018-05-15T02:00:13.204Z,15.09
2018-05-15T02:02:41.714Z,14.70
2018-05-15T02:05:10.137Z,14.93
2018-05-15T02:07:38.557Z,14.57
2018-05-15T02:10:06.987Z,14.79
2018-05-15T02:12:35.397Z,14.59
2018-05-15T02:15:03.835Z,14.84
2018-05-15T02:17:32.559Z,14.34
2018-05-15T02:20:00.954Z,14.64
2018-05-15T02:22:29.364Z,14.57
2018-05-15T02:24:57.814Z,14.43
2018-05-15T02:27:26.250Z,14.38
2018-05-15T02:29:54.652Z,14.75
2018-05-15T02:32:23.319Z,14.30
2018-05-15T02:34:51.727Z,14.54
2018-05-15T02:37:20.269Z,14.20
2018-05-15T02:39:48.979Z,14.35
2018-05-15T02:42:17.432Z,14.31
2018-05-15T02:44:45.861Z,14.05
2018-05-15T02:47:14.336Z,14.02
2018-05-15T02:49:42.775Z,13.79
2018-05-15T02:52:11.188Z,14.17
2018-05-15T02:54:40.179Z,14.44
2018-05-15T02:57:08.611Z,14.33
2018-05-15T02:59:37.010Z,13.97
2018-05-15T03:02:05.779Z,14.29
2018-05-15T03:04:34.223Z,14.32
2018-05-15T03:07:02.655Z,14.37
2018-05-15T03:09:31.476Z,14.46
2018-05-15T03:11:59.922Z,14.12
2018-05-15T03:14:28.340Z,14.27
2018-05-15T03:16:57.224Z,14.32
2018-05-15T03:19:25.612Z,14.22
2018-05-15T03:21:54.033Z,14.07
2018-05-15T03:24:22.782Z,14.26
2018-05-15T03:26:51.175Z,14.19
2018-05-15T03:29:19.560Z,14.13
2018-05-15T03:31:48.297Z,14.24
2018-05-15T03:34:16.691Z,14.25
2018-05-15T03:36:45.103Z,14.05
2018-05-15T03:39:13.759Z,14.16
2018-05-15T03:41:42.169Z,14.15
2018-05-15T03:44:10.563Z,14.29
2018-05-15T03:46:38.991Z,14.10
2018-05-15T03:49:07.445Z,14.13
2018-05-15T03:51:35.897Z,14.23
2018-05-15T03:54:04.631Z,14.56
2018-05-15T03:56:33.049Z,14.65
2018-05-15T03:59:01.452Z,14.65
2018-05-15T04:01:41.564Z,14.92
2018-05-15T04:04:21.956Z,14.75
2018-05-15T04:07:02.657Z,15.23
2018-05-15T04:09:31.054Z,15.42
2018-05-15T04:11:59.474Z,15.25
2018-05-15T04:14:29.170Z,15.26
2018-05-15T04:16:57.714Z,15.53
2018-05-15T04:19:26.133Z,15.61
2018-05-15T04:21:54.725Z,15.35
2018-05-15T04:24:23.162Z,15.38
2018-05-15T04:26:51.588Z,15.61
2018-05-15T04:29:20.478Z,15.57
2018-05-15T04:31:48.946Z,15.14
2018-05-15T04:34:17.378Z,15.43
2018-05-15T04:36:46.138Z,15.28
2018-05-15T04:39:14.548Z,15.45
2018-05-15T04:41:42.960Z,15.58
2018-05-15T04:44:11.415Z,15.87
2018-05-15T04:46:39.807Z,15.82
2018-05-15T04:49:08.247Z,15.73
2018-05-15T04:51:36.927Z,15.58
2018-05-15T04:54:05.359Z,15.37
2018-05-15T04:56:33.761Z,15.55
2018-05-15T04:59:02.563Z,15.61
2018-05-15T05:01:30.964Z,15.64
2018-05-15T05:03:59.368Z,16.13
2018-05-15T05:06:28.559Z,16.77
2018-05-15T05:08:57.008Z,17.13
2018-05-15T05:11:25.419Z,17.10
2018-05-15T05:13:54.972Z,17.08
2018-05-15T05:16:23.387Z,17.42
2018-05-15T05:18:51.774Z,17.65
2018-05-15T05:21:20.214Z,17.99
2018-05-15T05:23:48.631Z,18.06
2018-05-15T05:26:17.068Z,18.00
2018-05-15T05:28:45.585Z,17.84
2018-05-15T05:31:13.984Z,18.23
2018-05-15T05:33:42.429Z,18.47
2018-05-15T05:36:11.576Z,18.05
2018-05-15T05:38:40.029Z,17.96
2018-05-15T05:41:08.417Z,18.19
2018-05-15T05:43:37.512Z,18.54
2018-05-15T05:46:05.963Z,18.94
2018-05-15T05:48:34.337Z,19.14
2018-05-15T05:51:03.168Z,19.31
2018-05-15T05:53:31.609Z,19.61
2018-05-15T05:56:00.045Z,19.90
2018-05-15T05:58:28.705Z,20.33
2018-05-15T06:00:57.128Z,20.17
2018-05-15T06:03:25.534Z,20.12
2018-05-15T06:05:53.991Z,20.08
2018-05-15T06:08:22.415Z,20.29
2018-05-15T06:10:50.831Z,20.37
2018-05-15T06:13:19.447Z,20.54
2018-05-15T06:15:47.890Z,20.63
2018-05-15T06:18:16.318Z,20.91
2018-05-15T06:20:45.235Z,20.66
2018-05-15T06:23:13.539Z,20.88
2018-05-15T06:25:41.952Z,20.81
2018-05-15T06:28:10.407Z,20.76
2018-05-15T06:30:38.802Z,20.87
2018-05-15T06:33:07.296Z,20.72
2018-05-15T06:35:35.759Z,20.76
2018-05-15T06:38:04.181Z,21.05
2018-05-15T06:40:32.573Z,21.20
2018-05-15T06:43:01.380Z,21.41
2018-05-15T06:45:29.809Z,21.29
2018-05-15T06:47:58.223Z,20.21
2018-05-15T06:50:27.216Z,20.19
2018-05-15T06:52:55.707Z,20.57
2018-05-15T06:55:24.107Z,20.78
2018-05-15T06:57:52.841Z,21.35
2018-05-15T07:00:21.265Z,21.65
2018-05-15T07:02:49.670Z,21.90
2018-05-15T07:05:18.114Z,21.84
2018-05-15T07:07:46.573Z,21.88
2018-05-15T07:10:14.942Z,21.96
2018-05-15T07:12:43.623Z,21.98
2018-05-15T07:15:11.992Z,22.06
2018-05-15T07:17:40.387Z,21.94
2018-05-15T07:20:08.850Z,21.85
2018-05-15T07:22:37.291Z,21.96
2018-05-15T07:25:05.671Z,21.68
2018-05-15T07:27:34.278Z,21.17
2018-05-15T07:30:02.696Z,21.21
2018-05-15T07:32:31.097Z,21.58
2018-05-15T07:34:59.549Z,21.53
2018-05-15T07:37:27.997Z,21.05
2018-05-15T07:39:56.450Z,21.07
2018-05-15T07:42:25.171Z,21.10
2018-05-15T07:44:53.561Z,20.90
2018-05-15T07:47:21.966Z,21.42
2018-05-15T07:49:50.804Z,21.68
2018-05-15T07:52:19.195Z,21.96
2018-05-15T07:54:47.602Z,22.39
2018-05-15T07:57:16.055Z,23.12
2018-05-15T07:59:44.448Z,23.75
2018-05-15T08:02:13.041Z,24.17
2018-05-15T08:04:41.693Z,24.29
2018-05-15T08:07:10.096Z,24.43
2018-05-15T08:09:38.526Z,24.41
2018-05-15T08:12:06.992Z,24.88
2018-05-15T08:14:35.412Z,25.24
2018-05-15T08:17:03.847Z,24.53
2018-05-15T08:19:32.643Z,24.88
2018-05-15T08:22:01.096Z,25.12
2018-05-15T08:24:29.496Z,25.61
2018-05-15T08:26:58.100Z,25.17
2018-05-15T08:29:26.485Z,25.66
2018-05-15T08:31:54.922Z,25.41
2018-05-15T08:34:23.680Z,25.29
2018-05-15T08:36:52.071Z,25.51
2018-05-15T08:39:20.515Z,25.55
2018-05-15T08:41:49.332Z,24.17
2018-05-15T08:44:17.730Z,24.05
2018-05-15T08:46:46.169Z,24.82
2018-05-15T08:49:14.779Z,24.79
2018-05-15T08:51:43.187Z,25.09
2018-05-15T08:54:11.583Z,25.13
2018-05-15T08:56:40.224Z,25.29
2018-05-15T08:59:08.637Z,25.22
2018-05-15T09:01:37.042Z,25.30
2018-05-15T09:04:05.788Z,25.83
2018-05-15T09:06:34.201Z,26.30
2018-05-15T09:09:02.693Z,25.19
2018-05-15T09:11:31.356Z,24.33
2018-05-15T09:13:59.749Z,23.84
2018-05-15T09:16:28.798Z,23.47
2018-05-15T09:18:57.531Z,22.96
2018-05-15T09:21:25.934Z,22.62
2018-05-15T09:23:54.324Z,23.13
2018-05-15T09:26:23.032Z,23.14
2018-05-15T09:28:51.418Z,23.78
2018-05-15T09:31:19.842Z,24.39
2018-05-15T09:33:48.890Z,24.93
2018-05-15T09:36:17.285Z,25.44
2018-05-15T09:38:45.695Z,25.87
2018-05-15T09:41:14.144Z,26.23
2018-05-15T09:43:57.473Z,26.38
2018-05-15T09:46:26.141Z,26.61
2018-05-15T09:48:54.618Z,27.36
2018-05-15T09:51:23.016Z,27.79
2018-05-15T09:53:51.478Z,27.91
2018-05-15T09:56:19.876Z,27.42
2018-05-15T09:58:48.281Z,27.70
2018-05-15T10:01:17.025Z,27.37
2018-05-15T10:03:45.540Z,27.26
2018-05-15T10:06:13.947Z,27.39
2018-05-15T10:08:42.419Z,26.63
2018-05-15T10:11:10.855Z,26.91
2018-05-15T10:13:39.241Z,26.34
2018-05-15T10:16:08.127Z,26.74
2018-05-15T10:18:36.527Z,26.85
2018-05-15T10:21:04.948Z,26.49
2018-05-15T10:23:33.392Z,26.84
2018-05-15T10:26:01.795Z,26.93
2018-05-15T10:28:30.203Z,27.00
2018-05-15T10:30:59.591Z,27.73
2018-05-15T10:33:27.998Z,28.04
2018-05-15T10:35:56.399Z,27.04
2018-05-15T10:38:25.180Z,27.24
2018-05-15T10:40:53.579Z,27.47
2018-05-15T10:43:22.011Z,27.94
2018-05-15T10:45:50.877Z,28.50
2018-05-15T10:48:19.265Z,28.67
2018-05-15T10:50:47.691Z,28.77
2018-05-15T10:53:16.139Z,28.67
2018-05-15T10:55:44.587Z,29.24
2018-05-15T10:58:12.982Z,29.61
2018-05-15T11:00:41.823Z,29.73
2018-05-15T11:03:10.217Z,29.77
2018-05-15T11:05:38.639Z,30.10
2018-05-15T11:08:07.478Z,30.04
2018-05-15T11:10:35.890Z,30.12
2018-05-15T11:13:04.278Z,28.75
2018-05-15T11:15:32.777Z,27.99
2018-05-15T11:18:12.879Z,27.50
2018-05-15T11:20:53.113Z,27.09
2018-05-15T11:23:33.719Z,26.24
2018-05-15T11:26:02.506Z,26.66
2018-05-15T11:28:30.936Z,26.30
2018-05-15T11:30:59.334Z,26.64
2018-05-15T11:33:27.932Z,26.94
2018-05-15T11:35:56.378Z,26.27
2018-05-15T11:38:24.828Z,27.37
2018-05-15T11:40:53.583Z,28.45
2018-05-15T11:43:21.983Z,28.00
2018-05-15T11:45:50.378Z,27.98
2018-05-15T11:48:19.532Z,27.62
2018-05-15T11:50:48.323Z,26.93
2018-05-15T11:53:16.590Z,27.93
2018-05-15T11:55:44.689Z,28.57
2018-05-15T11:58:13.089Z,28.44
2018-05-15T12:00:41.491Z,29.02
2018-05-15T12:03:10.247Z,27.83
2018-05-15T12:05:38.633Z,27.94
2018-05-15T12:08:07.110Z,28.55
2018-05-15T12:10:35.843Z,29.22
2018-05-15T12:13:04.231Z,27.71
2018-05-15T12:15:32.626Z,27.94
2018-05-15T12:18:01.427Z,28.65
2018-05-15T12:20:29.810Z,28.93
2018-05-15T12:22:58.212Z,28.47
2018-05-15T12:25:27.088Z,29.65
2018-05-15T12:27:55.560Z,30.64
2018-05-15T12:30:23.928Z,31.58
2018-05-15T12:32:52.727Z,30.99
2018-05-15T12:35:21.202Z,32.10
2018-05-15T12:37:49.612Z,30.57
2018-05-15T12:40:18.381Z,30.99
2018-05-15T12:42:46.826Z,30.99
2018-05-15T12:45:15.224Z,31.18
2018-05-15T12:47:44.063Z,31.78
2018-05-15T12:50:12.452Z,32.12
2018-05-15T12:52:41.150Z,30.32
2018-05-15T12:55:09.808Z,29.91
2018-05-15T12:57:38.425Z,30.08
2018-05-15T13:00:06.893Z,30.42
2018-05-15T13:02:35.318Z,29.78
2018-05-15T13:05:03.773Z,29.17
2018-05-15T13:07:32.251Z,29.60
2018-05-15T13:10:00.992Z,29.66
2018-05-15T13:12:29.490Z,30.09
2018-05-15T13:14:57.882Z,29.68
2018-05-15T13:17:26.488Z,30.02
2018-05-15T13:19:54.885Z,30.23
2018-05-15T13:22:23.269Z,30.30
2018-05-15T13:24:52.097Z,32.17
2018-05-15T13:27:20.501Z,32.29
2018-05-15T13:29:48.896Z,32.36
2018-05-15T13:32:17.440Z,32.28
2018-05-15T13:34:46.002Z,31.82
2018-05-15T13:37:14.405Z,28.97
2018-05-15T13:39:43.487Z,29.58
2018-05-15T13:42:11.879Z,28.88
2018-05-15T13:44:40.265Z,27.55
2018-05-15T13:47:09.036Z,27.10
2018-05-15T13:49:37.452Z,26.36
2018-05-15T13:52:05.834Z,25.87
2018-05-15T13:54:34.604Z,25.47
2018-05-15T13:57:02.995Z,25.42
2018-05-15T13:59:31.453Z,25.53
2018-05-15T14:02:00.240Z,25.12
2018-05-15T14:04:28.691Z,24.48
2018-05-15T14:06:58.184Z,24.16
2018-05-15T14:09:28.562Z,22.41
2018-05-15T14:11:59.096Z,21.34
2018-05-15T14:14:28.416Z,20.30
2018-05-15T14:16:56.945Z,20.01
2018-05-15T14:19:27.436Z,19.79
2018-05-15T14:21:56.839Z,19.82
2018-05-15T14:24:26.239Z,19.49
2018-05-15T14:26:54.622Z,19.44
2018-05-15T14:29:23.056Z,19.36
2018-05-15T14:31:51.496Z,19.11
2018-05-15T14:34:19.913Z,19.18
2018-05-15T14:36:48.476Z,19.29
2018-05-15T14:39:16.850Z,19.39
2018-05-15T14:41:57.128Z,19.58
2018-05-15T14:44:25.546Z,19.59
2018-05-15T14:46:54.010Z,19.81
2018-05-15T14:49:22.503Z,19.83
2018-05-15T14:51:50.887Z,19.71
2018-05-15T14:54:19.305Z,19.26
2018-05-15T14:56:47.699Z,19.03
2018-05-15T14:59:16.148Z,18.81
2018-05-15T15:01:44.549Z,18.66
2018-05-15T15:04:12.972Z,18.62
2018-05-15T15:06:41.496Z,18.61
2018-05-15T15:09:09.935Z,18.16
2018-05-15T15:11:38.403Z,17.89
2018-05-15T15:14:06.832Z,17.63
2018-05-15T15:16:35.330Z,17.47
2018-05-15T15:19:03.717Z,17.28
2018-05-15T15:21:32.155Z,17.06
2018-05-15T15:24:00.531Z,16.96
2018-05-15T15:26:28.963Z,16.80
2018-05-15T15:28:57.413Z,16.86
2018-05-15T15:31:25.902Z,17.13
2018-05-15T15:33:54.619Z,17.19
2018-05-15T15:36:23.087Z,16.99
2018-05-15T15:38:51.522Z,17.00
2018-05-15T15:41:20.447Z,17.14
2018-05-15T15:43:48.904Z,19.43
2018-05-15T15:46:17.357Z,21.48
2018-05-15T15:48:45.762Z,22.75
2018-05-15T15:51:14.187Z,24.02
2018-05-15T15:53:42.658Z,25.74
2018-05-15T15:56:11.063Z,25.56
2018-05-15T15:58:39.440Z,25.61
2018-05-15T16:01:07.826Z,24.59
2018-05-15T16:03:36.261Z,23.45
2018-05-15T16:06:04.691Z,23.44
2018-05-15T16:08:33.100Z,24.58
2018-05-15T16:11:01.533Z,25.03
2018-05-15T16:13:29.993Z,25.94
2018-05-15T16:15:58.381Z,26.48
2018-05-15T16:18:26.807Z,26.48
2018-05-15T16:20:55.200Z,25.90
2018-05-15T16:23:23.610Z,25.55
2018-05-15T16:25:52.042Z,24.49
2018-05-15T16:28:20.409Z,23.04
2018-05-15T16:30:48.859Z,21.15
2018-05-15T16:33:17.234Z,20.41
2018-05-15T16:35:45.642Z,19.65
2018-05-15T16:38:14.119Z,18.77
2018-05-15T16:40:42.531Z,18.37
2018-05-15T16:43:11.003Z,18.58
2018-05-15T16:45:39.413Z,18.48
2018-05-15T16:48:07.815Z,18.06
2018-05-15T16:50:36.208Z,17.89
2018-05-15T16:53:04.723Z,17.83
2018-05-15T16:55:33.160Z,17.67
2018-05-15T16:58:01.569Z,17.68
2018-05-15T17:00:30.111Z,17.57
2018-05-15T17:02:58.480Z,17.75
2018-05-15T17:05:26.976Z,17.85
2018-05-15T17:07:55.453Z,17.95
2018-05-15T17:10:23.839Z,17.72
2018-05-15T17:12:52.326Z,18.52
2018-05-15T17:15:20.722Z,18.28
2018-05-15T17:17:49.164Z,18.58
2018-05-15T17:20:17.622Z,18.33
2018-05-15T17:22:46.126Z,18.00
2018-05-15T17:25:14.547Z,18.19
2018-05-15T17:27:43.019Z,18.27
2018-05-15T17:30:11.433Z,18.24
2018-05-15T17:32:39.868Z,18.28
2018-05-15T17:35:08.243Z,18.37
2018-05-15T17:37:36.640Z,18.41
2018-05-15T17:40:05.121Z,18.12
2018-05-15T17:42:33.528Z,17.61
2018-05-15T17:45:01.979Z,17.84
2018-05-15T17:47:30.460Z,17.76
2018-05-15T17:49:58.845Z,18.02
2018-05-15T17:52:27.303Z,17.98
2018-05-15T17:54:55.683Z,17.77
2018-05-15T17:57:24.142Z,17.91
2018-05-15T17:59:52.657Z,17.95
2018-05-15T18:02:21.031Z,17.89
2018-05-15T18:04:49.439Z,18.07
2018-05-15T18:07:17.860Z,17.67
2018-05-15T18:09:46.255Z,17.80
2018-05-15T18:12:14.692Z,17.56
2018-05-15T18:14:43.131Z,17.64
2018-05-15T18:17:11.548Z,17.44
2018-05-15T18:19:40.021Z,17.69
2018-05-15T18:22:08.507Z,17.60
2018-05-15T18:24:36.908Z,17.66
2018-05-15T18:27:05.356Z,17.32
2018-05-15T18:29:33.772Z,17.63
2018-05-15T18:32:02.182Z,17.62
2018-05-15T18:34:30.645Z,17.61
2018-05-15T18:36:59.031Z,17.78
2018-05-15T18:39:27.431Z,17.53
2018-05-15T18:41:55.871Z,17.57
2018-05-15T18:44:24.485Z,17.73
2018-05-15T18:46:53.112Z,17.85
2018-05-15T18:49:21.569Z,17.81
2018-05-15T18:51:50.004Z,17.35
2018-05-15T18:54:18.430Z,17.58
2018-05-15T18:56:46.887Z,17.56
2018-05-15T18:59:15.336Z,17.48
2018-05-15T19:01:43.755Z,16.96
2018-05-15T19:04:12.199Z,16.88
2018-05-15T19:06:40.721Z,16.79
2018-05-15T19:09:09.095Z,17.03
2018-05-15T19:11:37.552Z,16.90
2018-05-15T19:14:05.949Z,16.57
2018-05-15T19:16:34.425Z,16.01
2018-05-15T19:19:02.867Z,15.81
2018-05-15T19:21:31.324Z,15.38
2018-05-15T19:23:59.769Z,15.25
2018-05-15T19:26:28.956Z,15.06
2018-05-15T19:28:57.351Z,14.82
2018-05-15T19:31:31.296Z,14.69
2018-05-15T19:33:59.741Z,14.56
2018-05-15T19:36:31.779Z,14.71
2018-05-15T19:39:06.108Z,14.73
2018-05-15T19:41:34.576Z,14.70
2018-05-15T19:44:02.982Z,14.71
2018-05-15T19:46:31.372Z,14.64
2018-05-15T19:48:59.808Z,14.83
2018-05-15T19:51:28.883Z,14.80
2018-05-15T19:53:57.293Z,14.76
2018-05-15T19:56:25.711Z,14.87
2018-05-15T19:58:54.124Z,14.86
2018-05-15T20:01:22.549Z,14.90
2018-05-15T20:03:50.995Z,14.97
2018-05-15T20:06:19.378Z,15.00
2018-05-15T20:08:47.831Z,15.02
2018-05-15T20:11:16.206Z,15.05
2018-05-15T20:13:44.591Z,14.88
2018-05-15T20:16:13.101Z,14.71
2018-05-15T20:18:41.432Z,14.59
2018-05-15T20:21:09.869Z,14.50
2018-05-15T20:23:38.268Z,14.42
2018-05-15T20:26:06.695Z,14.44
2018-05-15T20:28:35.109Z,14.44
2018-05-15T20:31:03.559Z,14.43
2018-05-15T20:33:31.997Z,14.51
2018-05-15T20:36:00.435Z,14.55
2018-05-15T20:38:28.909Z,14.60
2018-05-15T20:40:57.288Z,14.65
2018-05-15T20:43:25.742Z,14.64
2018-05-15T20:45:54.180Z,14.59
2018-05-15T20:48:22.633Z,14.51
2018-05-15T20:50:51.060Z,14.46
2018-05-15T20:53:19.448Z,14.52
2018-05-15T20:55:47.867Z,14.44
2018-05-15T20:58:16.243Z,14.52
2018-05-15T21:00:44.679Z,14.72
2018-05-15T21:03:13.060Z,14.61
2018-05-15T21:05:41.451Z,14.88
2018-05-15T21:08:09.919Z,15.02
2018-05-15T21:10:38.331Z,15.14
2018-05-15T21:13:06.778Z,14.83
2018-05-15T21:15:35.192Z,14.47
2018-05-15T21:18:03.643Z,14.64
2018-05-15T21:20:32.080Z,14.66
2018-05-15T21:23:00.536Z,14.73
2018-05-15T21:25:28.999Z,14.62
2018-05-15T21:27:57.402Z,14.78
2018-05-15T21:30:25.839Z,14.83
2018-05-15T21:32:54.279Z,14.79
2018-05-15T21:35:22.690Z,14.98
2018-05-15T21:37:51.146Z,14.91
2018-05-15T21:40:19.583Z,15.00
2018-05-15T21:42:48.030Z,15.13
2018-05-15T21:45:16.435Z,15.21
2018-05-15T21:47:44.899Z,15.29
2018-05-15T21:50:13.483Z,14.99
2018-05-15T21:52:42.023Z,15.02
2018-05-15T21:55:10.348Z,14.93
2018-05-15T21:57:38.919Z,15.10
2018-05-15T22:00:07.351Z,14.99
2018-05-15T22:02:35.785Z,14.80
2018-05-15T22:05:04.245Z,15.03
2018-05-15T22:07:32.730Z,14.96
2018-05-15T22:10:01.171Z,14.92
2018-05-15T22:12:41.307Z,14.68
2018-05-15T22:15:27.393Z,14.60
2018-05-15T22:18:13.888Z,14.65
2018-05-15T22:21:00.466Z,14.92
2018-05-15T22:23:34.181Z,14.90
2018-05-15T22:26:02.348Z,15.02
2018-05-15T22:28:30.786Z,15.06
2018-05-15T22:30:59.235Z,14.94
2018-05-15T22:33:27.708Z,14.86
2018-05-15T22:35:56.168Z,14.85
2018-05-15T22:38:24.640Z,15.08
2018-05-15T22:40:53.031Z,14.82
2018-05-15T22:43:21.456Z,14.92
2018-05-15T22:45:49.876Z,14.79
2018-05-15T22:48:18.271Z,14.99
2018-05-15T22:50:46.663Z,14.91
2018-05-15T22:53:15.135Z,14.87
2018-05-15T22:55:43.544Z,14.78
2018-05-15T22:58:11.995Z,14.88
2018-05-15T23:00:40.412Z,14.72
2018-05-15T23:03:08.851Z,14.65
2018-05-15T23:05:37.239Z,14.63
2018-05-15T23:08:05.706Z,14.69
2018-05-15T23:10:34.127Z,14.99
2018-05-15T23:13:02.600Z,14.86
2018-05-15T23:15:31.066Z,14.94
2018-05-15T23:17:59.504Z,15.05
2018-05-15T23:20:27.954Z,15.09
2018-05-15T23:22:56.367Z,14.97
2018-05-15T23:25:24.811Z,15.08
2018-05-15T23:27:53.267Z,15.07
2018-05-15T23:30:21.732Z,15.02
2018-05-15T23:32:50.146Z,14.90
2018-05-15T23:35:18.571Z,14.50
2018-05-15T23:37:46.966Z,14.55
2018-05-15T23:40:15.409Z,14.64
2018-05-15T23:42:43.864Z,14.66
2018-05-15T23:45:12.299Z,14.44
2018-05-15T23:47:40.747Z,14.26
2018-05-15T23:50:09.196Z,14.23
2018-05-15T23:52:37.624Z,14.48
2018-05-15T23:55:06.031Z,14.40
2018-05-15T23:57:34.512Z,14.19
